Details From LOWI - Innsbruck Kranebitten
To MKJS - Montego Bay Sangster Intl
Flight Number -
Tags Generated
Created
Modified
Stats Distance 4,566 nm / 8,457 km
Max Altitude 0 ft / 0 m
Waypoints 6
Social Downloads 0
Likes 0
Share VATSIM

Download

Looking for another format? Having issues loading an existing format? Contact us
Advertisement - Login to hide

Notes

Generated

Route

LOWI DIBEX BENAR RB408 MBJ MKJS

ID Type Via Altitude Latitude Longitude Leg Dist Tot Dist Heading (true) Name
O LOWI APT - 0 ft / 0 m 47.25883˚ 11.33091˚ - 0 nm - -
DIBEX FIX - 0 ft / 0 m 47.89028˚ 6.04611˚ 217 nm 217 nm 282° / 278° -
BENAR FIX - 0 ft / 0 m 48.25306˚ 0.74444˚ 213 nm 431 nm 278° / 274° -
RB408 FIX - 0 ft / 0 m 48.41530˚ -4.56182˚ 212 nm 643 nm 275° / 271° -
MBJ NDB - 0 ft / 0 m 18.50361˚ -77.91835˚ 3922 nm 4565 nm 270° / 224° MONTEGO BAY NDB
O MKJS APT - 0 ft / 0 m 18.49873˚ -77.92482˚ 0 nm 4566 nm 232° / 232° -

Altitude Profile

Advertisement - Login to hide

Weather


0- 5 10 15 20 25 30 35+ Temperature / ° C

Clouds and Precipitation
Forecast for 2017-12-15 06:00 UTC. Updated 2 hours ago

Ground ~20,000 ft ~40,000 ft Winds

LOWI

Details ICAO LOWI (INN)
Name Innsbruck Kranebitten
Region Austria
Timezone Europe/Vienna (UTC+1.0)
Stats Elevation 1,906 ft / 581 m (AMSL)
Location 47.260226° 11.343967°
Runways 1
Magnetic Variation 3.019° E

METAR

LOWI 150250Z AUTO 32008KT 270V360 9999 SCT005 BKN012 01/00 Q0996

Decode

TAF

TAF TAF LOWI 142315Z 1500/1524 27006KT 6000 SCT005 SCT012 OVC020 TX04/1512Z TNM03/1600Z TEMPO 1500/1505 27015G25KT 0800 SHSN VV004 TEMPO 1505/1507 BKN005 BECMG 1507/1509 9999 FEW030

Decode

Departure Runways

ID Width Length Bearing (true) Bearing (mag) Surface Threshold Offset Overrun Length
08 148 ft / 45 m 6,545 ft / 1,995 m 81.02° 78.00° Asphalt 338 ft / 103 m 0 ft / 0 m
26 148 ft / 45 m 6,545 ft / 1,995 m 261.04° 258.02° Asphalt 0 ft / 0 m 0 ft / 0 m

MKJS

Details ICAO MKJS (MBJ)
Name Sangster Intl
Region Jamaica
Timezone America/Jamaica (UTC-5.0)
Stats Elevation 6 ft / 2 m (AMSL)
Location 18.503549° -77.913698°
Runways 1
Magnetic Variation 6.956° W

METAR

MKJS 150200Z VRB02KT 9999 FEW020 BKN050 25/24 Q1015

Decode

TAF

TAF MKJS 142315Z 1500/1524 12017KT 9999 FEW020 SCT040 BECMG 1513/1515 08017KT PROB30 TEMPO 1513/1524 6000 SHRA BKN020

Decode

Destination Runways

ID Width Length Bearing (true) Bearing (mag) Surface Threshold Offset Overrun Length
07 161 ft / 49 m 8,495 ft / 2,589 m 65.37° 72.33° Asphalt 220 ft / 67 m 312 ft / 95 m
25 161 ft / 49 m 8,495 ft / 2,589 m 245.37° 252.33° Asphalt 577 ft / 176 m 200 ft / 61 m

Approach Navaids

Runway Type Ident Frequency Range Bearing (true) Bearing (mag) Slope Elevation
07 Localiser ISIA 109.50 MHz 18 nm / 33 km 65.41° 72.36° - 4 ft / 1 m (AMSL)
07 Glidescope ISIA 109.50 MHz 10 nm / 19 km 65.37° 72.33° 3.00° 4 ft / 1 m (AMSL)